Terminal Aerodrome Forecast
Issued by NWS Tuscon, AZ

Home | Current Version | Previous Version | Text Only | Print | Product List | Glossary On
Versions: 1 2 3 4 5 6 7 8 9 10 11 12 13
000
FTUS45 KTWC 171100
TAFDUG
TAF
KDUG 171120Z 1712/1812 VRB03KT P6SM SKC
     FM171900 17008KT P6SM SCT250
     FM180400 10006KT P6SM BKN200=

USA.gov is the U.S. government's official web portal to all federal, state and local government web resources and services.